MET2387 - Kansas City to Rochester

Bombardier Dash-8-Q200
838AH
1 hr 15 mins
294 nm
Scheduled - Daily

Bid/PiRep Status

Bid was submitted on Nov 22 2016.

PiRep # 74153: Approved by Dave Nichols on November 28th, 2016 5:07 UTC

Departure

Departing from
Kansas City (MCI)
Departure gate
Scheduled Departure
GMT 2000
Local 1400
METAR KMCI 191753Z 15008KT 10SM FEW040 SCT160 BKN250 19/11 A2996 RMK AO2 SLP140 T01890111 10189 20072 58006
TAF KMCI 191720Z 1918/2018 17009KT P6SM FEW140 BKN200 FM200900 17010KT 6SM -SHRA BR VCTS OVC015CB FM201300 17009KT P6SM VCSH BKN010 FM201600 18011KT P6SM BKN015
  • No charts available

Arrival

Arriving at
Rochester (RST)
Arrival gate
A4
Scheduled Arrival
GMT 2115
Local 1515
METAR KRST 191754Z 15012KT 10SM CLR 09/06 A2996 RMK AO2 SLP155 I6000 T00890056 10094 21006 58009
TAF KRST 191730Z 1918/2018 16012KT P6SM SCT250 FM200300 15010KT P6SM SCT250 WS020/19040KT FM201000 15011KT P6SM BKN025 FM201500 15013KT 3SM -SHRA OVC003

Route Map

Planning Resources

ROYAL3 TONCE DSM J25 MCW YESUR [D147M] EGACE [D110M] D095M
ROYAL3 TONCE DSM J25 MCW RST
ROYAL 5 STJ DSM J25 MCW RST KRST
MCI STJ DSM J25 MCW RST
BACNN DSM JORDY MCW
Route:
OFP Layout:
Units:
Detailed Navlog:
ETOPS Planning:
Plan Stepclimbs:
Runway Analysis:
Include NOTAMS:
FIR NOTAMS:
Flight Maps:

Return Flights

MET2386
Bombardier Dash-8-Q200
1635 GMT
MET2388
Bombardier Dash-8-Q200
2135 GMT

Popularity

Hub Current Bids PiReps this month Total PiReps
KMCI 0 0 3
KLAX 1 0 0
KBOS 0 0 0